HKE123 RCKH-VHHH
Flight info
| Callsign | HKE123 |
|---|---|
| Flight time | 1h 7m |
| Altitude | 36000 |
| Route | PARAS1B PARAS T7 WP521 G581 ELATO V522 ABBEY |
| Aircraft | A21N/M-SDE3FGHIRWY/LB1 |
Departure
| Time | 2026-04-26 04:04 |
|---|---|
| Airport | Kaohsiung International Airport (RCKH) |
Arrival
| Time | 2026-04-26 05:11 |
|---|---|
| Airport | Hong Kong International Airport (VHHH) |
| Time | Latitude | Longitude | Altitude | Speed | Heading |
|---|---|---|---|---|---|
| 2026-04-26 04:04 | 22.49222 | 120.34055 | 4822 ft | 257 kts | 226° |
| 2026-04-26 04:04 | 22.47967 | 120.32707 | 5532 ft | 258 kts | 225° |
| 2026-04-26 04:05 | 22.46664 | 120.31371 | 6236 ft | 259 kts | 224° |
| 2026-04-26 04:05 | 22.45350 | 120.30061 | 6742 ft | 260 kts | 224° |
| 2026-04-26 04:05 | 22.44006 | 120.28737 | 6996 ft | 260 kts | 224° |
| 2026-04-26 04:05 | 22.42656 | 120.27419 | 7003 ft | 260 kts | 223° |
| 2026-04-26 04:06 | 22.41305 | 120.26105 | 7005 ft | 260 kts | 223° |
| 2026-04-26 04:06 | 22.39953 | 120.24794 | 7009 ft | 260 kts | 224° |
| 2026-04-26 04:06 | 22.38613 | 120.23495 | 7009 ft | 261 kts | 223° |
| 2026-04-26 04:06 | 22.37252 | 120.22179 | 6991 ft | 261 kts | 223° |
| 2026-04-26 04:07 | 22.35907 | 120.20877 | 6996 ft | 261 kts | 223° |
| 2026-04-26 04:07 | 22.34543 | 120.19559 | 7007 ft | 261 kts | 224° |
| 2026-04-26 04:07 | 22.33201 | 120.18262 | 7006 ft | 261 kts | 224° |
| 2026-04-26 04:07 | 22.31843 | 120.16949 | 7002 ft | 260 kts | 223° |
| 2026-04-26 04:08 | 22.30483 | 120.15633 | 6998 ft | 260 kts | 225° |
| 2026-04-26 04:08 | 22.29403 | 120.14111 | 6988 ft | 257 kts | 248° |
| 2026-04-26 04:08 | 22.28893 | 120.12226 | 7011 ft | 271 kts | 259° |
| 2026-04-26 04:08 | 22.28508 | 120.10197 | 7000 ft | 275 kts | 260° |
| 2026-04-26 04:09 | 22.28120 | 120.08176 | 6995 ft | 275 kts | 259° |
| 2026-04-26 04:09 | 22.27711 | 120.06151 | 6991 ft | 276 kts | 259° |
| 2026-04-26 04:09 | 22.27292 | 120.04137 | 6990 ft | 276 kts | 258° |
| 2026-04-26 04:09 | 22.26862 | 120.02103 | 7004 ft | 277 kts | 258° |
| 2026-04-26 04:10 | 22.26433 | 120.00085 | 7030 ft | 280 kts | 258° |
| 2026-04-26 04:10 | 22.25989 | 119.98006 | 7512 ft | 285 kts | 258° |
| 2026-04-26 04:10 | 22.25547 | 119.95943 | 8338 ft | 282 kts | 258° |
| 2026-04-26 04:10 | 22.25114 | 119.93917 | 9037 ft | 282 kts | 258° |
| 2026-04-26 04:11 | 22.24671 | 119.91849 | 9682 ft | 284 kts | 258° |
| 2026-04-26 04:11 | 22.24225 | 119.89772 | 10286 ft | 286 kts | 259° |
| 2026-04-26 04:11 | 22.23768 | 119.87637 | 10607 ft | 300 kts | 259° |
| 2026-04-26 04:11 | 22.23294 | 119.85420 | 10882 ft | 313 kts | 259° |
| 2026-04-26 04:12 | 22.22793 | 119.83080 | 11351 ft | 320 kts | 259° |
| 2026-04-26 04:12 | 22.22291 | 119.80747 | 11927 ft | 321 kts | 259° |
| 2026-04-26 04:12 | 22.21791 | 119.78429 | 12455 ft | 324 kts | 259° |
| 2026-04-26 04:12 | 22.21277 | 119.76044 | 12975 ft | 327 kts | 259° |
| 2026-04-26 04:13 | 22.20759 | 119.73638 | 13487 ft | 330 kts | 259° |
| 2026-04-26 04:13 | 22.20243 | 119.71243 | 13990 ft | 332 kts | 259° |
| 2026-04-26 04:13 | 22.19714 | 119.68793 | 14487 ft | 335 kts | 259° |
| 2026-04-26 04:13 | 22.19187 | 119.66347 | 14961 ft | 338 kts | 259° |
| 2026-04-26 04:14 | 22.18655 | 119.63891 | 15420 ft | 341 kts | 259° |
| 2026-04-26 04:14 | 22.18116 | 119.61403 | 15887 ft | 344 kts | 259° |
| 2026-04-26 04:14 | 22.17566 | 119.58868 | 16352 ft | 346 kts | 260° |
| 2026-04-26 04:14 | 22.17020 | 119.56343 | 16797 ft | 349 kts | 259° |
| 2026-04-26 04:15 | 22.16515 | 119.53788 | 17219 ft | 351 kts | 263° |
| 2026-04-26 04:15 | 22.16180 | 119.51193 | 17654 ft | 352 kts | 267° |
| 2026-04-26 04:15 | 22.16025 | 119.48547 | 18117 ft | 352 kts | 271° |
| 2026-04-26 04:15 | 22.15951 | 119.45890 | 18593 ft | 353 kts | 271° |
| 2026-04-26 04:16 | 22.15888 | 119.43262 | 19037 ft | 354 kts | 271° |
| 2026-04-26 04:16 | 22.15821 | 119.40619 | 19504 ft | 354 kts | 271° |
| 2026-04-26 04:16 | 22.15751 | 119.37947 | 19977 ft | 355 kts | 271° |
| 2026-04-26 04:16 | 22.15683 | 119.35309 | 20412 ft | 356 kts | 271° |
| 2026-04-26 04:17 | 22.15611 | 119.32666 | 20849 ft | 356 kts | 271° |
| 2026-04-26 04:17 | 22.15538 | 119.29976 | 21285 ft | 357 kts | 271° |
| 2026-04-26 04:17 | 22.15464 | 119.27319 | 21705 ft | 358 kts | 271° |
| 2026-04-26 04:17 | 22.15390 | 119.24641 | 22098 ft | 360 kts | 270° |
| 2026-04-26 04:18 | 22.15314 | 119.21931 | 22495 ft | 361 kts | 271° |
| 2026-04-26 04:18 | 22.15238 | 119.19246 | 22907 ft | 361 kts | 271° |
| 2026-04-26 04:18 | 22.15161 | 119.16532 | 23283 ft | 363 kts | 271° |
| 2026-04-26 04:18 | 22.15084 | 119.13787 | 23649 ft | 365 kts | 271° |
| 2026-04-26 04:19 | 22.15034 | 119.11065 | 23986 ft | 366 kts | 273° |
| 2026-04-26 04:19 | 22.15119 | 119.08360 | 24335 ft | 367 kts | 276° |
| 2026-04-26 04:19 | 22.15351 | 119.05623 | 24671 ft | 368 kts | 279° |
| 2026-04-26 04:19 | 22.15678 | 119.02866 | 25012 ft | 369 kts | 280° |
| 2026-04-26 04:20 | 22.16011 | 119.00131 | 25326 ft | 371 kts | 280° |
| 2026-04-26 04:20 | 22.16348 | 118.97382 | 25654 ft | 373 kts | 280° |
| 2026-04-26 04:20 | 22.16683 | 118.94598 | 25961 ft | 375 kts | 280° |
| 2026-04-26 04:20 | 22.17017 | 118.91802 | 26253 ft | 377 kts | 280° |
| 2026-04-26 04:21 | 22.17354 | 118.88980 | 26582 ft | 379 kts | 280° |
| 2026-04-26 04:21 | 22.17686 | 118.86186 | 26890 ft | 380 kts | 281° |
| 2026-04-26 04:21 | 22.18023 | 118.83368 | 27185 ft | 382 kts | 281° |
| 2026-04-26 04:21 | 22.18364 | 118.80502 | 27464 ft | 383 kts | 280° |
| 2026-04-26 04:22 | 22.18700 | 118.77668 | 27745 ft | 386 kts | 281° |
| 2026-04-26 04:22 | 22.19045 | 118.74764 | 28018 ft | 388 kts | 281° |
| 2026-04-26 04:22 | 22.19385 | 118.71896 | 28321 ft | 389 kts | 281° |
| 2026-04-26 04:22 | 22.19728 | 118.68991 | 28594 ft | 390 kts | 281° |
| 2026-04-26 04:23 | 22.20068 | 118.66119 | 28860 ft | 392 kts | 281° |
| 2026-04-26 04:23 | 22.20414 | 118.63183 | 29135 ft | 393 kts | 281° |
| 2026-04-26 04:23 | 22.20758 | 118.60264 | 29416 ft | 394 kts | 281° |
| 2026-04-26 04:23 | 22.21103 | 118.57331 | 29666 ft | 396 kts | 281° |
| 2026-04-26 04:24 | 22.21450 | 118.54366 | 29915 ft | 398 kts | 281° |
| 2026-04-26 04:24 | 22.21795 | 118.51441 | 30199 ft | 399 kts | 280° |
| 2026-04-26 04:24 | 22.22145 | 118.48472 | 30459 ft | 400 kts | 280° |
| 2026-04-26 04:24 | 22.22493 | 118.45473 | 30723 ft | 401 kts | 281° |
| 2026-04-26 04:25 | 22.22841 | 118.42490 | 30975 ft | 402 kts | 280° |
| 2026-04-26 04:25 | 22.23189 | 118.39526 | 31204 ft | 403 kts | 280° |
| 2026-04-26 04:25 | 22.23540 | 118.36509 | 31427 ft | 405 kts | 280° |
| 2026-04-26 04:25 | 22.23889 | 118.33486 | 31684 ft | 405 kts | 280° |
| 2026-04-26 04:26 | 22.24237 | 118.30486 | 32066 ft | 403 kts | 279° |
| 2026-04-26 04:26 | 22.24577 | 118.27541 | 32498 ft | 399 kts | 280° |
| 2026-04-26 04:26 | 22.24918 | 118.24587 | 32896 ft | 396 kts | 279° |
| 2026-04-26 04:26 | 22.25255 | 118.21647 | 33237 ft | 395 kts | 279° |
| 2026-04-26 04:27 | 22.25594 | 118.18707 | 33564 ft | 394 kts | 279° |
| 2026-04-26 04:27 | 22.25929 | 118.15809 | 33886 ft | 392 kts | 279° |
| 2026-04-26 04:27 | 22.26265 | 118.12887 | 34260 ft | 390 kts | 279° |
| 2026-04-26 04:27 | 22.26590 | 118.09965 | 34591 ft | 389 kts | 278° |
| 2026-04-26 04:28 | 22.26905 | 118.07077 | 34847 ft | 389 kts | 278° |
| 2026-04-26 04:28 | 22.27216 | 118.04209 | 35096 ft | 388 kts | 278° |
| 2026-04-26 04:28 | 22.27537 | 118.01299 | 35307 ft | 389 kts | 278° |
| 2026-04-26 04:28 | 22.27860 | 117.98400 | 35455 ft | 391 kts | 279° |
| 2026-04-26 04:29 | 22.28196 | 117.95484 | 35657 ft | 391 kts | 279° |
| 2026-04-26 04:29 | 22.28529 | 117.92599 | 35879 ft | 390 kts | 278° |
| 2026-04-26 04:29 | 22.28863 | 117.89677 | 36015 ft | 392 kts | 279° |
| 2026-04-26 04:30 | 22.29528 | 117.83852 | 36020 ft | 393 kts | 279° |
| 2026-04-26 04:30 | 22.30191 | 117.78014 | 36017 ft | 392 kts | 278° |
| 2026-04-26 04:31 | 22.30852 | 117.72188 | 36019 ft | 393 kts | 278° |
| 2026-04-26 04:31 | 22.31513 | 117.66321 | 36015 ft | 394 kts | 278° |
| 2026-04-26 04:32 | 22.32171 | 117.60459 | 36023 ft | 394 kts | 278° |
| 2026-04-26 04:32 | 22.32824 | 117.54621 | 36018 ft | 394 kts | 278° |
| 2026-04-26 04:33 | 22.33248 | 117.48716 | 36017 ft | 396 kts | 274° |
| 2026-04-26 04:33 | 22.33206 | 117.42780 | 36017 ft | 396 kts | 271° |
| 2026-04-26 04:34 | 22.33104 | 117.36851 | 36014 ft | 396 kts | 272° |
| 2026-04-26 04:34 | 22.32999 | 117.30937 | 36007 ft | 397 kts | 271° |
| 2026-04-26 04:35 | 22.32889 | 117.25007 | 36008 ft | 398 kts | 271° |
| 2026-04-26 04:35 | 22.32775 | 117.19031 | 36005 ft | 398 kts | 271° |
| 2026-04-26 04:36 | 22.32661 | 117.13041 | 36008 ft | 400 kts | 271° |
| 2026-04-26 04:36 | 22.32546 | 117.07059 | 36010 ft | 400 kts | 271° |
| 2026-04-26 04:37 | 22.32427 | 117.01063 | 36003 ft | 400 kts | 271° |
| 2026-04-26 04:37 | 22.32307 | 116.95062 | 36001 ft | 401 kts | 271° |
| 2026-04-26 04:38 | 22.32181 | 116.89069 | 36009 ft | 401 kts | 271° |
| 2026-04-26 04:38 | 22.32053 | 116.83057 | 36007 ft | 401 kts | 271° |
| 2026-04-26 04:39 | 22.31926 | 116.77023 | 36017 ft | 400 kts | 271° |
| 2026-04-26 04:39 | 22.31794 | 116.71027 | 36007 ft | 402 kts | 271° |
| 2026-04-26 04:40 | 22.31665 | 116.65045 | 35998 ft | 401 kts | 271° |
| 2026-04-26 04:40 | 22.31528 | 116.59007 | 36005 ft | 402 kts | 271° |
| 2026-04-26 04:41 | 22.31392 | 116.53006 | 35994 ft | 402 kts | 271° |
| 2026-04-26 04:41 | 22.31252 | 116.47006 | 36008 ft | 402 kts | 271° |
| 2026-04-26 04:42 | 22.31109 | 116.40950 | 36002 ft | 402 kts | 271° |
| 2026-04-26 04:42 | 22.30965 | 116.35001 | 35473 ft | 395 kts | 271° |
| 2026-04-26 04:42 | 22.30894 | 116.32072 | 34729 ft | 397 kts | 271° |
| 2026-04-26 04:43 | 22.30821 | 116.29099 | 33902 ft | 400 kts | 271° |
| 2026-04-26 04:43 | 22.30747 | 116.26076 | 33014 ft | 404 kts | 271° |
| 2026-04-26 04:43 | 22.30673 | 116.23050 | 32140 ft | 410 kts | 271° |
| 2026-04-26 04:43 | 22.30597 | 116.19959 | 31291 ft | 414 kts | 271° |
| 2026-04-26 04:44 | 22.30519 | 116.16889 | 30698 ft | 412 kts | 271° |
| 2026-04-26 04:44 | 22.30440 | 116.13802 | 30168 ft | 409 kts | 271° |
| 2026-04-26 04:44 | 22.30361 | 116.10777 | 29616 ft | 407 kts | 271° |
| 2026-04-26 04:44 | 22.30283 | 116.07710 | 29032 ft | 405 kts | 271° |
| 2026-04-26 04:45 | 22.30206 | 116.04726 | 28486 ft | 403 kts | 271° |
| 2026-04-26 04:45 | 22.30129 | 116.01724 | 27973 ft | 400 kts | 271° |
| 2026-04-26 04:45 | 22.30051 | 115.98724 | 27458 ft | 397 kts | 271° |
| 2026-04-26 04:45 | 22.29972 | 115.95747 | 26952 ft | 394 kts | 270° |
| 2026-04-26 04:46 | 22.29894 | 115.92823 | 26459 ft | 391 kts | 270° |
| 2026-04-26 04:46 | 22.29816 | 115.89904 | 25967 ft | 388 kts | 270° |
| 2026-04-26 04:46 | 22.29738 | 115.87035 | 25469 ft | 385 kts | 270° |
| 2026-04-26 04:46 | 22.29659 | 115.84152 | 24991 ft | 382 kts | 270° |
| 2026-04-26 04:47 | 22.29583 | 115.81341 | 24510 ft | 379 kts | 270° |
| 2026-04-26 04:47 | 22.29509 | 115.78514 | 24003 ft | 377 kts | 270° |
| 2026-04-26 04:47 | 22.29435 | 115.75690 | 23528 ft | 374 kts | 270° |
| 2026-04-26 04:47 | 22.29361 | 115.72913 | 23076 ft | 370 kts | 270° |
| 2026-04-26 04:48 | 22.29216 | 115.67416 | 22140 ft | 365 kts | 270° |
| 2026-04-26 04:48 | 22.29143 | 115.64689 | 21626 ft | 364 kts | 269° |
| 2026-04-26 04:48 | 22.29070 | 115.61961 | 21119 ft | 363 kts | 269° |
| 2026-04-26 04:49 | 22.28996 | 115.59262 | 20625 ft | 361 kts | 269° |
| 2026-04-26 04:49 | 22.28923 | 115.56580 | 20121 ft | 360 kts | 269° |
| 2026-04-26 04:49 | 22.28847 | 115.53873 | 19632 ft | 360 kts | 269° |
| 2026-04-26 04:49 | 22.28772 | 115.51161 | 19113 ft | 359 kts | 269° |
| 2026-04-26 04:50 | 22.28698 | 115.48508 | 18644 ft | 357 kts | 269° |
| 2026-04-26 04:50 | 22.28621 | 115.45814 | 18353 ft | 358 kts | 268° |
| 2026-04-26 04:50 | 22.28545 | 115.43131 | 18070 ft | 357 kts | 268° |
| 2026-04-26 04:50 | 22.28467 | 115.40435 | 17785 ft | 357 kts | 268° |
| 2026-04-26 04:51 | 22.28391 | 115.37783 | 17500 ft | 356 kts | 268° |
| 2026-04-26 04:51 | 22.28314 | 115.35119 | 17198 ft | 354 kts | 268° |
| 2026-04-26 04:51 | 22.28236 | 115.32481 | 16911 ft | 353 kts | 268° |
| 2026-04-26 04:51 | 22.28156 | 115.29858 | 16623 ft | 350 kts | 268° |
| 2026-04-26 04:52 | 22.28075 | 115.27228 | 16356 ft | 349 kts | 268° |
| 2026-04-26 04:52 | 22.27995 | 115.24625 | 16079 ft | 347 kts | 268° |
| 2026-04-26 04:52 | 22.27915 | 115.22045 | 15792 ft | 346 kts | 268° |
| 2026-04-26 04:52 | 22.27834 | 115.19443 | 15496 ft | 344 kts | 268° |
| 2026-04-26 04:53 | 22.27754 | 115.16861 | 15198 ft | 342 kts | 268° |
| 2026-04-26 04:53 | 22.27675 | 115.14307 | 14911 ft | 341 kts | 268° |
| 2026-04-26 04:53 | 22.27596 | 115.11784 | 14641 ft | 339 kts | 268° |
| 2026-04-26 04:53 | 22.27516 | 115.09238 | 14365 ft | 338 kts | 268° |
| 2026-04-26 04:54 | 22.27436 | 115.06733 | 14083 ft | 336 kts | 268° |
| 2026-04-26 04:54 | 22.27356 | 115.04219 | 13830 ft | 334 kts | 269° |
| 2026-04-26 04:54 | 22.27276 | 115.01718 | 13542 ft | 332 kts | 269° |
| 2026-04-26 04:54 | 22.27197 | 114.99260 | 13234 ft | 329 kts | 269° |
| 2026-04-26 04:55 | 22.27117 | 114.96787 | 12926 ft | 328 kts | 269° |
| 2026-04-26 04:55 | 22.27037 | 114.94338 | 12672 ft | 326 kts | 269° |
| 2026-04-26 04:55 | 22.26957 | 114.91889 | 12407 ft | 325 kts | 269° |
| 2026-04-26 04:55 | 22.26879 | 114.89487 | 12079 ft | 324 kts | 269° |
| 2026-04-26 04:56 | 22.26799 | 114.87051 | 11760 ft | 323 kts | 269° |
| 2026-04-26 04:56 | 22.26719 | 114.84633 | 11501 ft | 322 kts | 269° |
| 2026-04-26 04:56 | 22.26640 | 114.82240 | 11217 ft | 321 kts | 269° |
| 2026-04-26 04:56 | 22.26543 | 114.79833 | 10936 ft | 320 kts | 267° |
| 2026-04-26 04:57 | 22.26309 | 114.77447 | 10646 ft | 320 kts | 263° |
| 2026-04-26 04:57 | 22.25904 | 114.75073 | 10363 ft | 320 kts | 260° |
| 2026-04-26 04:57 | 22.25446 | 114.72752 | 10071 ft | 319 kts | 259° |
| 2026-04-26 04:57 | 22.24973 | 114.70391 | 9798 ft | 318 kts | 259° |
| 2026-04-26 04:58 | 22.24511 | 114.68090 | 9510 ft | 314 kts | 259° |
| 2026-04-26 04:58 | 22.24052 | 114.65793 | 9202 ft | 308 kts | 259° |
| 2026-04-26 04:58 | 22.23609 | 114.63569 | 8936 ft | 302 kts | 259° |
| 2026-04-26 04:58 | 22.23169 | 114.61356 | 8648 ft | 296 kts | 259° |
| 2026-04-26 04:59 | 22.22741 | 114.59208 | 8346 ft | 291 kts | 259° |
| 2026-04-26 04:59 | 22.22321 | 114.57099 | 8057 ft | 286 kts | 259° |
| 2026-04-26 04:59 | 22.21907 | 114.55019 | 7760 ft | 282 kts | 259° |
| 2026-04-26 04:59 | 22.21494 | 114.52945 | 7469 ft | 281 kts | 259° |
| 2026-04-26 05:00 | 22.21086 | 114.50903 | 7174 ft | 279 kts | 259° |
| 2026-04-26 05:00 | 22.20679 | 114.48859 | 6900 ft | 278 kts | 259° |
| 2026-04-26 05:00 | 22.20272 | 114.46822 | 6620 ft | 276 kts | 258° |
| 2026-04-26 05:00 | 22.19872 | 114.44826 | 6394 ft | 273 kts | 258° |
| 2026-04-26 05:01 | 22.19493 | 114.42818 | 6252 ft | 274 kts | 263° |
| 2026-04-26 05:01 | 22.19717 | 114.40807 | 6075 ft | 272 kts | 294° |
| 2026-04-26 05:01 | 22.20856 | 114.39195 | 5937 ft | 272 kts | 322° |
| 2026-04-26 05:01 | 22.22540 | 114.38307 | 5811 ft | 272 kts | 342° |
| 2026-04-26 05:02 | 22.24338 | 114.37690 | 5664 ft | 271 kts | 342° |
| 2026-04-26 05:02 | 22.26139 | 114.37057 | 5509 ft | 270 kts | 341° |
| 2026-04-26 05:02 | 22.27928 | 114.36414 | 5366 ft | 270 kts | 341° |
| 2026-04-26 05:02 | 22.29721 | 114.35761 | 5231 ft | 269 kts | 341° |
| 2026-04-26 05:03 | 22.31490 | 114.35113 | 5156 ft | 270 kts | 341° |
| 2026-04-26 05:03 | 22.33283 | 114.34454 | 5090 ft | 269 kts | 341° |
| 2026-04-26 05:03 | 22.35041 | 114.33807 | 5027 ft | 270 kts | 341° |
| 2026-04-26 05:03 | 22.36846 | 114.33141 | 4951 ft | 270 kts | 341° |
| 2026-04-26 05:04 | 22.38601 | 114.32450 | 4871 ft | 270 kts | 334° |
| 2026-04-26 05:04 | 22.40023 | 114.31162 | 4779 ft | 270 kts | 304° |
| 2026-04-26 05:04 | 22.40707 | 114.29286 | 4712 ft | 272 kts | 281° |
| 2026-04-26 05:04 | 22.41028 | 114.27271 | 4641 ft | 272 kts | 279° |
| 2026-04-26 05:05 | 22.41358 | 114.25255 | 4572 ft | 273 kts | 281° |
| 2026-04-26 05:05 | 22.41704 | 114.23238 | 4501 ft | 267 kts | 281° |
| 2026-04-26 05:05 | 22.42007 | 114.21334 | 4454 ft | 252 kts | 276° |
| 2026-04-26 05:05 | 22.42038 | 114.19448 | 4448 ft | 248 kts | 264° |
| 2026-04-26 05:06 | 22.41705 | 114.17657 | 4456 ft | 238 kts | 254° |
| 2026-04-26 05:06 | 22.41196 | 114.16005 | 4428 ft | 233 kts | 251° |
| 2026-04-26 05:06 | 22.40639 | 114.14365 | 4256 ft | 226 kts | 250° |
| 2026-04-26 05:06 | 22.40103 | 114.12785 | 3950 ft | 221 kts | 250° |
| 2026-04-26 05:07 | 22.39595 | 114.11255 | 3620 ft | 216 kts | 251° |
| 2026-04-26 05:07 | 22.39101 | 114.09740 | 3334 ft | 210 kts | 251° |
| 2026-04-26 05:07 | 22.38632 | 114.08289 | 3067 ft | 203 kts | 251° |
| 2026-04-26 05:07 | 22.38178 | 114.06880 | 2815 ft | 195 kts | 251° |
| 2026-04-26 05:08 | 22.37739 | 114.05513 | 2564 ft | 187 kts | 251° |
| 2026-04-26 05:08 | 22.37324 | 114.04223 | 2332 ft | 180 kts | 250° |
| 2026-04-26 05:08 | 22.36922 | 114.02975 | 2142 ft | 168 kts | 250° |
| 2026-04-26 05:08 | 22.36554 | 114.01829 | 1900 ft | 157 kts | 250° |
| 2026-04-26 05:09 | 22.36195 | 114.00722 | 1719 ft | 156 kts | 250° |
| 2026-04-26 05:09 | 22.35838 | 113.99618 | 1520 ft | 155 kts | 250° |
| 2026-04-26 05:09 | 22.35483 | 113.98519 | 1318 ft | 154 kts | 251° |
| 2026-04-26 05:09 | 22.35133 | 113.97434 | 1121 ft | 152 kts | 251° |
| 2026-04-26 05:10 | 22.34791 | 113.96375 | 937 ft | 150 kts | 252° |
| 2026-04-26 05:10 | 22.34452 | 113.95314 | 748 ft | 148 kts | 252° |
| 2026-04-26 05:10 | 22.34110 | 113.94264 | 612 ft | 147 kts | 252° |
| 2026-04-26 05:10 | 22.33771 | 113.93218 | 412 ft | 145 kts | 252° |
| 2026-04-26 05:11 | 22.33434 | 113.92197 | 234 ft | 143 kts | 251° |
| 2026-04-26 05:11 | 22.33112 | 113.91193 | 69 ft | 141 kts | 253° |
| 2026-04-26 05:11 | 22.32821 | 113.90283 | 35 ft | 106 kts | 250° |
| 2026-04-26 05:11 | 22.32671 | 113.89816 | 34 ft | 39 kts | 251° |
| 2026-04-26 05:12 | 22.32544 | 113.89592 | 35 ft | 16 kts | 225° |
| 2026-04-26 05:12 | 22.32457 | 113.89508 | 35 ft | 16 kts | 210° |
| 2026-04-26 05:12 | 22.32349 | 113.89522 | 35 ft | 15 kts | 153° |
| 2026-04-26 05:12 | 22.32334 | 113.89620 | 35 ft | 14 kts | 69° |
| 2026-04-26 05:13 | 22.32369 | 113.89726 | 35 ft | 15 kts | 71° |
| 2026-04-26 05:13 | 22.32402 | 113.89833 | 35 ft | 15 kts | 71° |
| 2026-04-26 05:13 | 22.32437 | 113.89941 | 34 ft | 15 kts | 70° |
| 2026-04-26 05:13 | 22.32472 | 113.90050 | 34 ft | 15 kts | 71° |
| 2026-04-26 05:14 | 22.32509 | 113.90163 | 34 ft | 16 kts | 70° |
| 2026-04-26 05:14 | 22.32541 | 113.90280 | 34 ft | 15 kts | 100° |
| 2026-04-26 05:14 | 22.32452 | 113.90340 | 35 ft | 15 kts | 162° |
| 2026-04-26 05:14 | 22.32317 | 113.90389 | 34 ft | 24 kts | 161° |
| 2026-04-26 05:15 | 22.32161 | 113.90449 | 34 ft | 23 kts | 160° |
| 2026-04-26 05:15 | 22.32010 | 113.90505 | 35 ft | 22 kts | 161° |
| 2026-04-26 05:15 | 22.31867 | 113.90557 | 35 ft | 21 kts | 161° |
| 2026-04-26 05:15 | 22.31729 | 113.90608 | 35 ft | 20 kts | 160° |
| 2026-04-26 05:16 | 22.31598 | 113.90659 | 35 ft | 19 kts | 150° |
| 2026-04-26 05:16 | 22.31594 | 113.90785 | 35 ft | 18 kts | 70° |
| 2026-04-26 05:16 | 22.31635 | 113.90910 | 35 ft | 17 kts | 70° |
| 2026-04-26 05:16 | 22.31676 | 113.91035 | 35 ft | 17 kts | 71° |
| 2026-04-26 05:17 | 22.31716 | 113.91158 | 35 ft | 17 kts | 70° |
| 2026-04-26 05:17 | 22.31745 | 113.91280 | 35 ft | 16 kts | 109° |
| 2026-04-26 05:17 | 22.31650 | 113.91335 | 35 ft | 16 kts | 160° |
| 2026-04-26 05:17 | 22.31542 | 113.91371 | 35 ft | 16 kts | 163° |
| 2026-04-26 05:18 | 22.31435 | 113.91409 | 35 ft | 16 kts | 160° |
| 2026-04-26 05:18 | 22.31330 | 113.91448 | 35 ft | 16 kts | 161° |
| 2026-04-26 05:18 | 22.31224 | 113.91487 | 35 ft | 11 kts | 161° |
| 2026-04-26 05:18 | 22.31196 | 113.91527 | 35 ft | 7 kts | 82° |
| 2026-04-26 05:19 | 22.31216 | 113.91583 | 35 ft | 8 kts | 71° |
| 2026-04-26 05:19 | 22.31223 | 113.91607 | 35 ft | 0 kts | 71° |